Tiempo atmosférico en la estación meteorológica de Vejer De La Frontera, Cádiz (160 m.)



Fecha
DESCASC
Temp. máxima en grados centígrados (hora)
DESCASC
Temp. mínima en grados centígrados (hora)
DESCASC
Temp. media en grados centígrados
DESCASC
Racha de viento máxima en m/sg (hora)
DESCASC
Velocidad máxima media en intervalos de 10 minutos(hora)
DESCASC
Precipitaciones diarias en mm
DESCASC
Precipitaciones de 00:00 a 06:00 en mm
DESCASC
Precipitaciones de 06:00 a 12:00 en mm
DESCASC
Precipitaciones de 12:00 a 18:00 en mm
DESCASC
Precipitaciones de 18:00 a 24:00 en mm
DESCASC
20-09-2018 31.7 (14:00) 21 (05:00) 26.4 9.72 (07:30) 5 (06:50) 0 0 0 0 0
19-09-2018 32.9 (15:30) 20.3 (08:20) 26.6 7.5 (22:00) 3.33 (23:00) 0 0 0 0 0
18-09-2018 29 (14:50) 20.9 (07:30) 24.9 7.5 (15:40) 4.17 (15:20) 0 0 0 0 0
17-09-2018 29.6 (14:40) 21.6 (05:50) 25.6 13.61 (02:50) 5.83 (03:00) 0 0 0 0 0
16-09-2018 29 (16:10) 20.2 (00:00) 24.6 11.67 (18:00) 5.56 (18:00) 0 0 0 0 0
15-09-2018 28.3 (14:20) 19.3 (00:00) 23.8 7.5 (15:10) 3.89 (00:30) 20.6 0 0 20.6 0
14-09-2018 27.8 (16:00) 19.8 (00:00) 23.8 -- (--) -- (--) 1.5 0 1.5 0 0
13-09-2018 26.3 (16:10) 20.2 (00:00) 23.3 8.61 (16:40) 5 (15:10) 0 0 0 0 0
12-09-2018 30.3 (17:10) 21.8 (00:00) 26 12.78 (03:30) 5 (04:20) 0 0 0 0 0
11-09-2018 29.5 (15:20) 22 (00:00) 25.8 19.44 (12:40) 7.5 (12:10) 0 0 0 0 0
10-09-2018 30.2 (14:40) 19 (00:00) 24.6 12.22 (19:20) 5.56 (17:30) 0 0 0 0 0
09-09-2018 28.1 (16:40) 18.3 (00:00) 23.2 6.67 (16:40) 4.17 (14:10) 0 0 0 0 0
08-09-2018 25.4 (17:50) 18.4 (00:00) 21.9 8.33 (18:10) 4.17 (17:00) 0 0 0 0 0
07-09-2018 26.5 (16:00) 17.5 (00:00) 22 8.33 (17:00) 5 (17:00) 0 0 0 0 0
06-09-2018 25.3 (15:30) 18.3 (00:00) 21.8 9.44 (16:40) 5 (14:20) 0 0 0 0 0
05-09-2018 25.6 (17:40) 19.1 (00:00) 22.4 8.33 (18:40) 4.44 (19:20) 0.1 0 0.1 0 0
04-09-2018 26.4 (15:10) 19.2 (00:00) 22.8 8.61 (17:00) 4.44 (16:00) 0 0 0 0 0
03-09-2018 25.7 (15:50) 20 (00:00) 22.9 9.17 (16:00) 5.28 (00:50) 0.1 0.1 0 0 0
02-09-2018 32.6 (15:00) 21 (00:00) 26.8 12.5 (00:40) 6.11 (09:50) 0 0 0 0 0
01-09-2018 29.7 (15:40) 22.2 (00:00) 26 16.39 (14:20) 7.22 (15:00) 0 0 0 0 0
31-08-2018 29.5 (17:30) 22.3 (00:00) 25.9 16.39 (13:50) 8.33 (15:10) 0 0 0 0 0
30-08-2018 31.4 (15:20) 18 (00:00) 24.7 10.28 (16:50) 5 (17:20) 0 0 0 0 0
29-08-2018 26.7 (16:50) 18.6 (00:00) 22.7 8.89 (19:30) 5.28 (21:20) 0 0 0 0 0
28-08-2018 29.2 (14:50) 19.8 (00:00) 24.5 8.89 (18:20) 5.56 (18:20) 0 0 0 0 0
27-08-2018 31.1 (15:00) 21.7 (00:00) 26.4 18.06 (13:00) 7.22 (21:40) 0 0 0 0 0
26-08-2018 34.4 (15:20) 19.1 (00:00) 26.8 10.83 (18:40) 5 (17:50) 0 0 0 0 0
25-08-2018 30.9 (18:20) 23.2 (00:00) 27.1 6.94 (09:30) 4.44 (14:40) 0 0 0 0 0
24-08-2018 33.2 (14:10) 22.9 (00:00) 28.1 7.78 (17:10) 4.72 (17:20) 0 0 0 0 0
23-08-2018 34.9 (15:50) 21 (00:00) 28 8.33 (00:50) 3.89 (18:50) 0 0 0 0 0

Gráficas

Temp. máximas Temp. mínimas Temp. medias Precipitaciones Rachas de viento máximas Velocidades máximas media en intervalos de 10 minutos

Datos horarios

Fecha y hora oficial Temperatura (ºC) Velocidad del viento (km/h) Dirección del viento Racha (km/h) Dirección de racha Precipitación (mm) Presión (hPa) Tendencia (hPa) Humedad (%)
2018-09-21 23:00:00 23.4 7 Este 22 Este 0 -- -- 46
2018-09-21 22:00:00 24 9 Este 21 Este 0 -- -- 42
2018-09-21 21:00:00 25.2 9 Este 17 Este 0 -- -- 40
2018-09-21 20:00:00 27.7 2 Sur 14 Este 0 -- -- 37
2018-09-21 19:00:00 29.7 6 Este 18 Este 0 -- -- 27
2018-09-21 18:00:00 30.6 5 Oeste 22 Oeste 0 -- -- 40
2018-09-21 17:00:00 32.4 0 Calma 18 Este 0 -- -- 33
2018-09-21 16:00:00 31.7 6 Este 20 Este 0 -- -- 33
2018-09-21 15:00:00 31.1 6 Este 19 Sudeste 0 -- -- 37
2018-09-21 14:00:00 29.8 6 Este 23 Este 0 -- -- 42
2018-09-21 13:00:00 28.8 6 Este 20 Este 0 -- -- 48
2018-09-21 12:00:00 27 6 Este 24 Este 0 -- -- 56
2018-09-21 11:00:00 24.6 9 Este 23 Este 0 -- -- 69
2018-09-21 10:00:00 22.1 8 Nordeste 17 Este 0 -- -- 84
2018-09-21 09:00:00 20.7 5 Nordeste 12 Este 0 -- -- 91
2018-09-21 08:00:00 20.3 0 Calma 11 Nordeste 0 -- -- 89
2018-09-21 07:00:00 20.5 6 Nordeste 13 Nordeste 0 -- -- 89
2018-09-21 06:00:00 20.6 5 Este 18 Este 0 -- -- 91
2018-09-21 05:00:00 20.3 4 Este 17 Este 0 -- -- 92
2018-09-21 04:00:00 20.7 7 Este 19 Este 0 -- -- 91
2018-09-21 03:00:00 21 9 Este 24 Este 0 -- -- 91
2018-09-21 02:00:00 21 8 Este 26 Este 0 -- -- 90
2018-09-21 01:00:00 21.3 10 Este 22 Este 0 -- -- 90
2018-09-21 00:00:00 21.6 9 Este 26 Este 0 -- -- 88
2018-09-20 23:00:00 21.8 10 Este 22 Este 0 -- -- 85
2018-09-20 22:00:00 22.3 8 Nordeste 15 Este 0 -- -- 77
2018-09-20 21:00:00 23.3 8 Este 21 Este 0 -- -- 70
2018-09-20 20:00:00 24.9 9 Este 25 Este 0 -- -- 55
2018-09-20 19:00:00 26.4 9 Este 25 Este 0 -- -- 45
2018-09-20 18:00:00 28.2 12 Este 30 Este 0 -- -- 42
2018-09-20 17:00:00 29.4 11 Este 29 Este 0 -- -- 41
2018-09-20 16:00:00 31.5 12 Sudeste 28 Sudeste 0 -- -- 37
2018-09-20 15:00:00 30.4 13 Sudeste 31 Sudeste 0 -- -- 40
2018-09-20 14:00:00 30.2 13 Sudeste 30 Este 0 -- -- 41
2018-09-20 13:00:00 29.9 12 Sudeste 32 Este 0 -- -- 43
2018-09-20 12:00:00 28 15 Este 34 Este 0 -- -- 49
2018-09-20 11:00:00 25.8 17 Este 35 Este 0 -- -- 59
2018-09-20 10:00:00 24.2 12 Este 27 Este 0 -- -- 72
2018-09-20 09:00:00 22.2 12 Este 27 Este 0 -- -- 83
2018-09-20 08:00:00 21.7 13 Este 35 Este 0 -- -- 82
2018-09-20 07:00:00 21.4 14 Este 32 Este 0 -- -- 85
2018-09-20 06:00:00 21.2 8 Este 19 Este 0 -- -- 87
2018-09-20 05:00:00 21 9 Este 26 Este 0 -- -- 88
2018-09-20 04:00:00 21.8 11 Este 20 Este 0 -- -- 87
2018-09-20 03:00:00 21.4 8 Este 22 Este 0 -- -- 87
2018-09-20 02:00:00 21.7 9 Este 28 Este 0 -- -- 86
2018-09-20 01:00:00 21.7 10 Este 24 Este 0 -- -- 84
2018-09-20 00:00:00 21.7 8 Este 23 Este 0 -- -- 83
2018-09-19 23:00:00 22.2 12 Este 24 Este 0 -- -- 79
2018-09-19 22:00:00 22.9 11 Este 27 Este 0 -- -- 74
2018-09-19 21:00:00 24.1 9 Este 19 Este 0 -- -- 60
2018-09-19 20:00:00 27.1 5 Nordeste 16 Este 0 -- -- 44
2018-09-19 19:00:00 29 6 Sudeste 18 Sur 0 -- -- 38
2018-09-19 18:00:00 30.8 8 Sur 17 Este 0 -- -- 34
2018-09-19 17:00:00 32.1 8 Este 17 Sudeste 0 -- -- 33
2018-09-19 16:00:00 31.7 8 Sudeste 21 Este 0 -- -- 34
2018-09-19 15:00:00 31.8 8 Sudeste 19 Este 0 -- -- 37
2018-09-19 14:00:00 30.1 5 Nordeste 22 Este 0 -- -- 41
2018-09-19 13:00:00 28.4 7 Nordeste 18 Este 0 -- -- 49
2018-09-19 12:00:00 26.8 10 Este 21 Este 0 -- -- 55
2018-09-19 11:00:00 24.9 9 Este 19 Este 0 -- -- 68
2018-09-19 10:00:00 22.6 7 Este 15 Este 0 -- -- 83
2018-09-19 09:00:00 20.6 4 Este 10 Nordeste 0 -- -- 92
2018-09-19 08:00:00 20.8 0 Calma 9 Este 0 -- -- 90
2018-09-19 07:00:00 20.8 6 Nordeste 11 Este 0 -- -- 90
2018-09-19 06:00:00 21.2 3 Nordeste 9 Nordeste 0 -- -- 94
2018-09-19 05:00:00 21.8 0 Calma 5 Norte 0 -- -- 91
2018-09-19 04:00:00 21.6 0 Calma 7 Norte 0 -- -- 91
2018-09-19 03:00:00 21.8 0 Calma 6 Norte 0 -- -- 87
2018-09-19 02:00:00 22.5 3 Norte 5 Norte 0 -- -- 87
2018-09-19 01:00:00 22.4 0 Calma 5 Norte 0 -- -- 88
2018-09-19 00:00:00 22.9 0 Calma 13 Norte 0 -- -- 74
2018-09-18 23:00:00 24 4 Noroeste 9 Noroeste 0 -- -- 66
2018-09-18 22:00:00 23.6 4 Noroeste 10 Noroeste 0 -- -- 72
2018-09-18 21:00:00 23.2 4 Oeste 11 Oeste 0 -- -- 81
2018-09-18 20:00:00 24.7 6 Oeste 16 Oeste 0 -- -- 71
2018-09-18 19:00:00 26.1 7 Oeste 22 Oeste 0 -- -- 61
2018-09-18 18:00:00 27 12 Oeste 23 Sudoeste 0 -- -- 56
2018-09-18 17:00:00 27.3 15 Oeste 26 Sudoeste 0 -- -- 55
2018-09-18 16:00:00 28 14 Oeste 27 Sudoeste 0 -- -- 54
2018-09-18 15:00:00 28.6 12 Sudoeste 23 Sudoeste 0 -- -- 51
2018-09-18 14:00:00 26.8 9 Sudoeste 17 Sudoeste 0 -- -- 58
2018-09-18 13:00:00 27.9 0 Calma 11 Nordeste 0 -- -- 49
2018-09-18 12:00:00 26.9 3 Este 12 Este 0 -- -- 57
2018-09-18 11:00:00 24.1 4 Sudoeste 10 Oeste 0 -- -- 77
2018-09-18 10:00:00 22.5 0 Calma -- -- 0 -- -- 89
2018-09-18 09:00:00 21.4 0 Calma -- -- 0 -- -- 94
2018-09-18 08:00:00 21.1 0 Calma 6 Nordeste 0 -- -- 94
2018-09-18 07:00:00 21.2 0 Calma 8 Nordeste 0 -- -- 94
2018-09-18 06:00:00 21.2 3 Nordeste 12 Nordeste 0 -- -- 94
2018-09-18 05:00:00 21.5 6 Nordeste 11 Nordeste 0 -- -- 92
2018-09-18 04:00:00 21.5 5 Nordeste 12 Nordeste 0 -- -- 92
2018-09-18 03:00:00 21.8 6 Nordeste 14 Nordeste 0 -- -- 92
2018-09-18 02:00:00 22 5 Este 15 Este 0 -- -- 91
2018-09-18 01:00:00 22.1 6 Este 16 Este 0 -- -- 89
2018-09-18 00:00:00 22.6 10 Este 25 Este 0 -- -- 87
2018-09-17 23:00:00 22.7 9 Este 24 Este 0 -- -- 86
2018-09-17 22:00:00 22.9 10 Este 24 Nordeste 0 -- -- 85
2018-09-17 21:00:00 23.5 11 Este 27 Este 0 -- -- 81
2018-09-17 20:00:00 24.5 13 Este 32 Este 0 -- -- 72
2018-09-17 19:00:00 26.3 13 Este 33 Este 0 -- -- 60
2018-09-17 18:00:00 27.8 14 Este 31 Este 0 -- -- 55
2018-09-17 17:00:00 28.3 13 Este 35 Este 0 -- -- 53
2018-09-17 16:00:00 28.7 15 Este 40 Este 0 -- -- 52
2018-09-17 15:00:00 29 17 Este 39 Este 0 -- -- 51
2018-09-17 14:00:00 27.9 16 Este 41 Este 0 -- -- 54
2018-09-17 13:00:00 27.9 16 Este 38 Sudeste 0 -- -- 54
2018-09-17 12:00:00 27.4 18 Este 45 Este 0 -- -- 60
2018-09-17 11:00:00 26.1 17 Este 40 Este 0 -- -- 66
2018-09-17 10:00:00 24.5 14 Este 35 Este 0 -- -- 75
2018-09-17 09:00:00 22.5 14 Este 30 Este 0 -- -- 88
2018-09-17 08:00:00 21.8 12 Este 30 Este 0 -- -- 87
2018-09-17 07:00:00 21.8 10 Este 30 Este 0 -- -- 87
2018-09-17 06:00:00 21.8 13 Este 32 Este 0 -- -- 91
2018-09-17 05:00:00 22 13 Este 44 Este 0 -- -- 89
2018-09-17 04:00:00 22.2 18 Este 41 Este 0 -- -- 89
2018-09-17 03:00:00 22.4 21 Este 49 Este 0 -- -- 87
2018-09-17 02:00:00 22 16 Este 38 Este 0 -- -- 88
2018-09-17 01:00:00 22.1 19 Este 35 Este 0 -- -- 88
2018-09-17 00:00:00 22 14 Este 28 Este 0 -- -- 86
2018-09-16 23:00:00 22.2 13 Este 27 Este 0 -- -- 84
2018-09-16 22:00:00 22.6 12 Este 30 Este 0 -- -- 82
2018-09-16 21:00:00 22.8 15 Este 31 Este 0 -- -- 78
2018-09-16 20:00:00 24.1 13 Este 32 Sudeste 0 -- -- 68
2018-09-16 19:00:00 25.7 17 Este 40 Este 0 -- -- 59
2018-09-16 18:00:00 27 20 Este 42 Este 0 -- -- 52
2018-09-16 17:00:00 28 15 Este 40 Este 0 -- -- 46
2018-09-16 16:00:00 28.2 14 Este 37 Este 0 -- -- 47
2018-09-16 15:00:00 27.7 16 Este 33 Este 0 -- -- 49
2018-09-16 14:00:00 26.8 11 Este 29 Este 0 -- -- 53
2018-09-16 13:00:00 27.4 13 Este 34 Este 0 -- -- 56
2018-09-16 12:00:00 25.5 14 Este 36 Sudeste 0 -- -- 62
2018-09-16 11:00:00 23.4 17 Este 35 Este 0 -- -- 74
2018-09-16 10:00:00 22.5 12 Este 26 Este 0 -- -- 84
2018-09-16 09:00:00 21.3 9 Este 35 Este 0 -- -- 91
2018-09-16 08:00:00 20.7 9 Este 27 Este 0 -- -- 91
2018-09-16 07:00:00 20.3 9 Este 20 Este 0 -- -- 92
2018-09-16 06:00:00 20.3 9 Este 20 Nordeste 0 -- -- 94
2018-09-16 05:00:00 20.5 9 Nordeste 20 Nordeste 0 -- -- 94
2018-09-16 04:00:00 20.4 8 Nordeste 18 Este 0 -- -- 93
2018-09-16 03:00:00 20.5 6 Este 17 Nordeste 0 -- -- 93
2018-09-16 02:00:00 20.8 8 Este 24 Este 0 -- -- 91
2018-09-16 01:00:00 21.1 10 Este 27 Nordeste 0 -- -- 91
2018-09-16 00:00:00 21 10 Este 23 Este 0 -- -- 90
2018-09-15 23:00:00 21.1 8 Este 20 Este 0 -- -- 87
2018-09-15 22:00:00 21.2 8 Este 17 Este 0 -- -- 86
2018-09-15 21:00:00 21.7 6 Este 13 Este 0 -- -- 84
2018-09-15 20:00:00 22.8 0 Calma 10 Este 0 -- -- 78
2018-09-15 19:00:00 22.5 4 Nordeste 12 Norte 0 -- -- 79
2018-09-15 18:00:00 21.1 3 Norte 9 Norte 0 -- -- 85
2018-09-15 17:00:00 20.8 4 Este 15 Nordeste 0.1 -- -- 94
2018-09-15 16:00:00 21.5 0 Calma 27 Noroeste 18.2 -- -- 92
2018-09-15 15:00:00 23.7 12 Oeste 23 Oeste 2.3 -- -- 74
2018-09-15 14:00:00 27.2 8 Oeste 17 Oeste 0 -- -- 53
2018-09-15 13:00:00 26.9 3 Sudeste 14 Este 0 -- -- 53
2018-09-15 12:00:00 25.6 5 Este 13 Este 0 -- -- 60
2018-09-15 11:00:00 24 3 Nordeste 9 Nordeste 0 -- -- 72
2018-09-15 10:00:00 21.9 2 Nordeste 9 Este 0 -- -- 83
2018-09-15 09:00:00 20.9 4 Nordeste 11 Nordeste 0 -- -- 86
2018-09-15 08:00:00 20.7 0 Calma 9 Norte 0 -- -- 86
2018-09-15 07:00:00 20.5 0 Calma 9 Nordeste 0 -- -- 86
2018-09-15 06:00:00 20 5 Nordeste 10 Nordeste 0 -- -- 84
2018-09-15 05:00:00 19.6 6 Nordeste 13 Este 0 -- -- 82
2018-09-15 04:00:00 19.7 6 Nordeste 12 Nordeste 0 -- -- 76
2018-09-15 03:00:00 20.5 4 Nordeste 14 Norte 0 -- -- 69
2018-09-15 02:00:00 20.6 5 Norte 24 Norte 0 -- -- 71
2018-09-15 01:00:00 19.7 10 Norte 26 Norte 0 -- -- 81
2018-09-15 00:00:00 19.8 12 Norte 34 Norte 0 -- -- 78
2018-09-14 23:00:00 20.4 13 Norte 36 Norte 0 -- -- 69
2018-09-14 22:00:00 22.8 5 Norte 17 Nordeste 0 -- -- 62
2018-09-14 21:00:00 23.1 5 Norte 12 Norte 0 -- -- 68
2018-09-14 20:00:00 23.4 5 Este 12 Este 0 -- -- 68
2018-09-14 19:00:00 23.9 4 Nordeste 13 Este 0 -- -- 67
2018-09-14 18:00:00 24.3 4 Este 11 Nordeste 0 -- -- 60
2018-09-14 17:00:00 25.5 0 Calma 15 Este 0 -- -- 56
2018-09-14 16:00:00 27 5 Este 19 Este 0 -- -- 56
2018-09-14 15:00:00 25.3 4 Este 10 Este 0 -- -- 65
2018-09-14 14:00:00 25.2 0 Calma 15 Sur 0 -- -- 64
2018-09-14 13:00:00 24.8 4 Sudeste 10 Sur 0 -- -- 67
2018-09-14 12:00:00 22.2 0 Calma 9 Oeste 0 -- -- 91
2018-09-14 11:00:00 20.9 3 Sudoeste 8 Oeste 0 -- -- 94
2018-09-14 10:00:00 20.3 6 Sudeste 10 Sudeste 0 -- -- 95
2018-09-14 09:00:00 20.3 0 Calma 9 Sudeste 1.4 -- -- 95
2018-09-14 08:00:00 20.1 0 Calma 8 Este 0 -- -- 95
2018-09-14 07:00:00 20.1 0 Calma 8 Nordeste 0.1 -- -- 95
2018-09-14 06:00:00 20.6 0 Calma 6 Oeste 0 -- -- 94
2018-09-14 05:00:00 20.5 0 Calma 3 Oeste 0 -- -- 92
2018-09-14 04:00:00 20.6 0 Calma -- -- 0 -- -- 92
2018-09-14 03:00:00 20.7 0 Calma 8 Oeste 0 -- -- 92
2018-09-14 02:00:00 20.8 0 Calma 8 Oeste 0 -- -- 92
2018-09-14 01:00:00 20.9 6 Oeste 19 Oeste 0 -- -- 92
2018-09-14 00:00:00 20.7 8 Oeste 14 Oeste 0 -- -- 92
2018-09-13 23:00:00 20.6 5 Sudoeste 12 Sudoeste 0 -- -- 91
2018-09-13 22:00:00 20.9 5 Sudoeste 19 Oeste 0 -- -- 91
2018-09-13 21:00:00 21.5 12 Oeste 23 Oeste 0 -- -- 86
2018-09-13 20:00:00 22.8 14 Oeste 28 Sudoeste 0 -- -- 75
2018-09-13 19:00:00 24.1 14 Oeste 27 Oeste 0 -- -- 62
2018-09-13 18:00:00 25.6 15 Oeste 28 Sudoeste 0 -- -- 56
2018-09-13 17:00:00 26 16 Sudoeste 31 Sudoeste 0 -- -- 54
2018-09-13 16:00:00 26.1 15 Oeste 29 Sudoeste 0 -- -- 56
2018-09-13 15:00:00 25.2 15 Sudoeste 30 Oeste 0 -- -- 57
2018-09-13 14:00:00 24.9 15 Sudoeste 28 Sudoeste 0 -- -- 57
2018-09-13 13:00:00 23.9 12 Oeste 22 Sudoeste 0 -- -- 67
2018-09-13 12:00:00 23 11 Oeste 20 Sudoeste 0 -- -- 70
2018-09-13 11:00:00 23.5 4 Oeste 12 Oeste 0 -- -- 76
2018-09-13 10:00:00 21.3 4 Oeste 10 Oeste 0 -- -- 94
2018-09-13 09:00:00 20.5 0 Calma 0 Calma 0 -- -- 95
2018-09-13 08:00:00 20.3 0 Calma 9 Sudoeste 0 -- -- 95
2018-09-13 07:00:00 20.8 2 Sudoeste 12 Sudoeste 0 -- -- 95
2018-09-13 06:00:00 21 6 Oeste 12 Sudoeste 0 -- -- 95
2018-09-13 05:00:00 21.5 3 Norte 9 Noroeste 0 -- -- 93
2018-09-13 04:00:00 21.5 3 Noroeste 15 Oeste 0 -- -- 92
2018-09-13 03:00:00 21.8 10 Oeste 15 Oeste 0 -- -- 81
2018-09-13 02:00:00 22.1 3 Oeste 6 Oeste 0 -- -- 85
2018-09-13 01:00:00 22.2 4 Oeste 12 Oeste 0 -- -- 87
2018-09-13 00:00:00 22.6 8 Sudoeste 21 Sudoeste 0 -- -- 75
2018-09-12 23:00:00 22 12 Sudoeste 21 Sudoeste 0 -- -- 90
2018-09-12 22:00:00 23.5 7 Sudoeste 17 Sur 0 -- -- 74
2018-09-12 21:00:00 24.3 9 Sur 19 Sur 0 -- -- 67
2018-09-12 20:00:00 25.6 9 Sur 19 Sur 0 -- -- 56
2018-09-12 19:00:00 27.4 7 Sur 19 Sudoeste 0 -- -- 47
2018-09-12 18:00:00 28.4 10 Sur 24 Sudoeste 0 -- -- 43
2018-09-12 17:00:00 29.6 11 Sudoeste 25 Sudoeste 0 -- -- 41
2018-09-12 16:00:00 28.7 10 Sur 24 Sur 0 -- -- 50
2018-09-12 15:00:00 28.1 14 Sudeste 32 Sudeste 0 -- -- 55
2018-09-12 14:00:00 28.8 12 Sudeste 22 Sur 0 -- -- 52
2018-09-12 13:00:00 26.7 10 Sudeste 23 Este 0 -- -- 62
2018-09-12 12:00:00 26.9 9 Este 24 Este 0 -- -- 60
2018-09-12 11:00:00 26.1 12 Este 30 Este 0 -- -- 67
2018-09-12 10:00:00 23.9 13 Este 29 Este 0 -- -- 81
2018-09-12 09:00:00 22.8 12 Este 30 Este 0 -- -- 90
2018-09-12 08:00:00 22.3 14 Este 36 Este 0 -- -- 91
2018-09-12 07:00:00 22.6 15 Este 34 Este 0 -- -- 91
2018-09-12 06:00:00 22.5 12 Este 35 Este 0 -- -- 92
2018-09-12 05:00:00 22.6 14 Este 40 Este 0 -- -- 91
2018-09-12 04:00:00 22.7 15 Este 46 Este 0 -- -- 91
2018-09-12 03:00:00 22.6 14 Este 37 Este 0 -- -- 91
2018-09-12 02:00:00 22.6 15 Este 35 Este 0 -- -- 91
2018-09-12 01:00:00 22.9 13 Este 36 Este 0 -- -- 91
2018-09-12 00:00:00 22.8 15 Este 31 Este 0 -- -- 90
2018-09-11 23:00:00 22.9 16 Este 34 Este 0 -- -- 88
2018-09-11 22:00:00 22.9 14 Este 34 Este 0 -- -- 87
2018-09-11 21:00:00 23.2 13 Este 44 Este 0 -- -- 83
2018-09-11 20:00:00 24.1 19 Este 48 Este 0 -- -- 74
2018-09-11 19:00:00 25.9 19 Este 48 Este 0 -- -- 60
2018-09-11 18:00:00 26.9 23 Este 52 Este 0 -- -- 53
2018-09-11 17:00:00 28.4 20 Este 49 Este 0 -- -- 48
2018-09-11 16:00:00 28.3 24 Este 55 Este 0 -- -- 48
2018-09-11 15:00:00 29.4 19 Este 54 Este 0 -- -- 48
2018-09-11 14:00:00 27.1 21 Este 57 Este 0 -- -- 54
2018-09-11 13:00:00 27 22 Este 70 Este 0 -- -- 55
2018-09-11 12:00:00 25.1 21 Este 50 Este 0 -- -- 62
2018-09-11 11:00:00 24.5 24 Este 54 Este 0 -- -- 64
2018-09-11 10:00:00 24.7 20 Este 48 Este 0 -- -- 66
2018-09-11 09:00:00 23 17 Este 49 Este 0 -- -- 77
2018-09-11 08:00:00 22.3 20 Este 45 Este 0 -- -- 86
2018-09-11 07:00:00 22.2 18 Este 45 Este 0 -- -- 86
2018-09-11 06:00:00 22.5 19 Este 41 Sudeste 0 -- -- 86
2018-09-11 05:00:00 22.2 17 Este 38 Este 0 -- -- 84
2018-09-11 04:00:00 22.3 17 Este 45 Este 0 -- -- 82
2018-09-11 03:00:00 22 14 Este 31 Este 0 -- -- 82
2018-09-11 02:00:00 22.1 13 Este 40 Este 0 -- -- 80
2018-09-11 01:00:00 22.2 14 Este 35 Este 0 -- -- 80
2018-09-11 00:00:00 22.5 14 Este 39 Este 0 -- -- 80
2018-09-10 23:00:00 22.8 18 Este 39 Este 0 -- -- 79
2018-09-10 22:00:00 22.6 17 Este 39 Este 0 -- -- 78
2018-09-10 21:00:00 23.2 15 Este 38 Este 0 -- -- 68
2018-09-10 20:00:00 24.7 16 Este 44 Este 0 -- -- 51
2018-09-10 19:00:00 26.6 16 Este 37 Este 0 -- -- 41
2018-09-10 18:00:00 27.9 17 Este 43 Este 0 -- -- 38
2018-09-10 17:00:00 29.7 15 Este 41 Este 0 -- -- 35
2018-09-10 16:00:00 28.9 18 Este 43 Nordeste 0 -- -- 36
2018-09-10 15:00:00 30 18 Este 39 Este 0 -- -- 34
2018-09-10 14:00:00 29.5 13 Este 32 Este 0 -- -- 36
2018-09-10 13:00:00 28.1 13 Este 29 Este 0 -- -- 38
2018-09-10 12:00:00 27.4 8 Este 22 Este 0 -- -- 44
2018-09-10 11:00:00 25 12 Este 22 Este 0 -- -- 54
2018-09-10 10:00:00 22.6 6 Nordeste 16 Nordeste 0 -- -- 68
2018-09-10 09:00:00 20.5 8 Nordeste 14 Nordeste 0 -- -- 76
2018-09-10 08:00:00 19.8 6 Nordeste 18 Nordeste 0 -- -- 79
2018-09-10 07:00:00 20 8 Nordeste 18 Nordeste 0 -- -- 81
2018-09-10 06:00:00 19.4 9 Nordeste 18 Nordeste 0 -- -- 88
2018-09-10 05:00:00 19.1 8 Nordeste 16 Nordeste 0 -- -- 90
2018-09-10 04:00:00 19.3 8 Nordeste 18 Nordeste 0 -- -- 87
2018-09-10 03:00:00 19.6 7 Nordeste 14 Nordeste 0 -- -- 85
2018-09-10 02:00:00 19.6 6 Nordeste 14 Nordeste 0 -- -- 84
2018-09-10 01:00:00 20.2 8 Nordeste 15 Nordeste 0 -- -- 80
2018-09-10 00:00:00 20.6 5 Norte 14 Norte 0 -- -- 79
2018-09-09 23:00:00 21.2 4 Noroeste 10 Oeste 0 -- -- 76
2018-09-09 22:00:00 20.8 4 Oeste 9 Oeste 0 -- -- 75
2018-09-09 21:00:00 21.6 5 Sudoeste 14 Oeste 0 -- -- 68
2018-09-09 20:00:00 22.9 7 Oeste 14 Sudoeste 0 -- -- 61
2018-09-09 19:00:00 24.2 10 Sudoeste 18 Oeste 0 -- -- 56
2018-09-09 18:00:00 25.1 9 Sudoeste 22 Oeste 0 -- -- 49
2018-09-09 17:00:00 26 10 Oeste 24 Sudoeste 0 -- -- 46
2018-09-09 16:00:00 27.1 10 Oeste 21 Oeste 0 -- -- 44
2018-09-09 15:00:00 25.3 7 Noroeste 24 Sudoeste 0 -- -- 49
2018-09-09 14:00:00 25.7 12 Oeste 24 Oeste 0 -- -- 47
2018-09-09 13:00:00 24.5 11 Oeste 21 Oeste 0 -- -- 51
2018-09-09 12:00:00 24.2 8 Sudoeste 14 Oeste 0 -- -- 56
2018-09-09 11:00:00 22.8 6 Oeste 12 Sudoeste 0 -- -- 60
2018-09-09 10:00:00 21 2 Nordeste 8 Este 0 -- -- 68
2018-09-09 09:00:00 19.3 0 Calma 14 Noroeste 0 -- -- 80
2018-09-09 08:00:00 18.8 8 Norte 17 Norte 0 -- -- 87
2018-09-09 07:00:00 18.9 9 Norte 20 Norte 0 -- -- 90
2018-09-09 06:00:00 18.6 9 Norte 19 Norte 0 -- -- 93
2018-09-09 05:00:00 18.4 8 Norte 18 Norte 0 -- -- 95
2018-09-09 04:00:00 19 5 Noroeste 14 Norte 0 -- -- 93
2018-09-09 03:00:00 18.9 5 Noroeste 15 Norte 0 -- -- 92
2018-09-09 02:00:00 20.3 3 Norte 10 Nordeste 0 -- -- 72
2018-09-09 01:00:00 20.6 6 Noroeste 14 Norte 0 -- -- 73
2018-09-09 00:00:00 20.8 6 Norte 14 Norte 0 -- -- 65
2018-09-08 23:00:00 21.5 5 Noroeste 14 Noroeste 0 -- -- 60
2018-09-08 22:00:00 21.5 6 Noroeste 15 Oeste 0 -- -- 58
2018-09-08 21:00:00 22 7 Noroeste 20 Oeste 0 -- -- 53
2018-09-08 20:00:00 22.9 10 Oeste 22 Oeste 0 -- -- 49
2018-09-08 19:00:00 23.8 8 Oeste 30 Sudoeste 0 -- -- 45
2018-09-08 18:00:00 24.7 15 Oeste 27 Oeste 0 -- -- 43
2018-09-08 17:00:00 23.3 15 Oeste 26 Oeste 0 -- -- 46
2018-09-08 16:00:00 23.1 15 Oeste 27 Oeste 0 -- -- 45
2018-09-08 15:00:00 24.8 12 Oeste 28 Sudoeste 0 -- -- 46
2018-09-08 14:00:00 24.3 13 Oeste 27 Oeste 0 -- -- 53
2018-09-08 13:00:00 23.3 7 Oeste 14 Oeste 0 -- -- 56
2018-09-08 12:00:00 23 5 Oeste 13 Oeste 0 -- -- 64
2018-09-08 11:00:00 21.7 2 Norte 5 Norte 0 -- -- 68
2018-09-08 10:00:00 20.5 0 Calma 5 Norte 0 -- -- 75
2018-09-08 09:00:00 19 2 Nordeste 6 Nordeste 0 -- -- 79
2018-09-08 08:00:00 18.8 2 Nordeste 7 Norte 0 -- -- 78
2018-09-08 07:00:00 19.1 0 Calma 7 Norte 0 -- -- 82
2018-09-08 06:00:00 18.5 2 Noroeste 7 Noroeste 0 -- -- 81
2018-09-08 05:00:00 19.1 0 Calma 5 Oeste 0 -- -- 80
2018-09-08 04:00:00 19.5 4 Oeste 9 Oeste 0 -- -- 79
2018-09-08 03:00:00 19.7 4 Noroeste 14 Oeste 0 -- -- 78
2018-09-08 02:00:00 19.3 9 Oeste 16 Oeste 0 -- -- 79
2018-09-08 01:00:00 19.3 10 Oeste 18 Oeste 0 -- -- 77
2018-09-08 00:00:00 19.4 10 Oeste 18 Oeste 0 -- -- 76
2018-09-07 23:00:00 19.6 12 Oeste 21 Oeste 0 -- -- 74
2018-09-07 22:00:00 19.7 12 Oeste 21 Oeste 0 -- -- 74
2018-09-07 21:00:00 20.4 14 Oeste 24 Oeste 0 -- -- 64
2018-09-07 20:00:00 21.7 15 Oeste 27 Sudoeste 0 -- -- 54
2018-09-07 19:00:00 23.8 14 Oeste 27 Oeste 0 -- -- 49
2018-09-07 18:00:00 25.1 15 Oeste 29 Oeste 0 -- -- 44
2018-09-07 17:00:00 25.6 18 Oeste 30 Oeste 0 -- -- 43
2018-09-07 16:00:00 25.8 14 Oeste 27 Oeste 0 -- -- 43
2018-09-07 15:00:00 24.7 15 Oeste 26 Oeste 0 -- -- 46
2018-09-07 14:00:00 24.7 12 Oeste 25 Oeste 0 -- -- 46
2018-09-07 13:00:00 24.1 9 Oeste 17 Oeste 0 -- -- 49
2018-09-07 12:00:00 22.5 6 Sudoeste 13 Oeste 0 -- -- 53
2018-09-07 11:00:00 21.7 5 Oeste 13 Oeste 0 -- -- 60
2018-09-07 10:00:00 19.9 4 Sudoeste 9 Sudoeste 0 -- -- 71
2018-09-07 09:00:00 18.3 2 Noroeste 5 Noroeste 0 -- -- 83
2018-09-07 08:00:00 17.7 0 Calma 5 Noroeste 0 -- -- 83
2018-09-07 07:00:00 18.2 0 Calma 9 Noroeste 0 -- -- 80
2018-09-07 06:00:00 18.7 0 Calma 6 Sudoeste 0 -- -- 77
2018-09-07 05:00:00 18.9 0 Calma 13 Sudoeste 0 -- -- 76
2018-09-07 04:00:00 18.8 8 Sudoeste 15 Sudoeste 0 -- -- 77
2018-09-07 03:00:00 18.9 9 Sudoeste 15 Sur 0 -- -- 80
2018-09-07 02:00:00 18.5 8 Sudoeste 15 Sudoeste 0 -- -- 83
2018-09-07 01:00:00 18.8 9 Sudoeste 17 Sudoeste 0 -- -- 85
2018-09-07 00:00:00 18.3 9 Sudoeste 15 Sudoeste 0 -- -- 86
2018-09-06 23:00:00 18.7 8 Sudoeste 17 Sudoeste 0 -- -- 84
2018-09-06 22:00:00 19.1 12 Sudoeste 26 Sudoeste 0 -- -- 82
2018-09-06 21:00:00 19.6 13 Sudoeste 24 Oeste 0 -- -- 77
2018-09-06 20:00:00 21 12 Oeste 21 Oeste 0 -- -- 70
2018-09-06 19:00:00 21.6 14 Oeste 25 Sudoeste 0 -- -- 66
2018-09-06 18:00:00 22.7 15 Oeste 27 Sudoeste 0 -- -- 63
2018-09-06 17:00:00 23.5 15 Sudoeste 34 Sudoeste 0 -- -- 58
2018-09-06 16:00:00 23.5 16 Oeste 30 Sudoeste 0 -- -- 59
2018-09-06 15:00:00 24.3 14 Oeste 30 Sudoeste 0 -- -- 58
2018-09-06 14:00:00 24 14 Sudoeste 27 Sudoeste 0 -- -- 56
2018-09-06 13:00:00 22.9 12 Oeste 24 Sudoeste 0 -- -- 63
2018-09-06 12:00:00 22.6 11 Sudoeste 22 Sudoeste 0 -- -- 66
2018-09-06 11:00:00 21.4 13 Sudoeste 22 Sudoeste 0 -- -- 80
2018-09-06 10:00:00 20.9 8 Oeste 18 Sudoeste 0 -- -- 82
2018-09-06 09:00:00 19.6 9 Sudoeste 15 Sudoeste 0 -- -- 94
2018-09-06 08:00:00 19.3 7 Sudoeste 13 Oeste 0 -- -- 93
2018-09-06 07:00:00 19.4 5 Oeste 13 Oeste 0 -- -- 91
2018-09-06 06:00:00 19.3 7 Oeste 14 Sudoeste 0 -- -- 91
2018-09-06 05:00:00 19.4 6 Oeste 19 Sudoeste 0 -- -- 91
2018-09-06 04:00:00 19.2 10 Sudoeste 17 Sudoeste 0 -- -- 92
2018-09-06 03:00:00 19.3 7 Oeste 15 Oeste 0 -- -- 90
2018-09-06 02:00:00 19.2 7 Oeste 13 Oeste 0 -- -- 87
2018-09-06 01:00:00 19.5 8 Oeste 18 Oeste 0 -- -- 87
2018-09-06 00:00:00 19.9 8 Oeste 16 Oeste 0 -- -- 83
2018-09-05 23:00:00 20.2 9 Oeste 17 Oeste 0 -- -- 79
2018-09-05 22:00:00 20.5 8 Oeste 22 Oeste 0 -- -- 76
2018-09-05 21:00:00 20.9 12 Oeste 27 Oeste 0 -- -- 69
2018-09-05 20:00:00 22.5 14 Oeste 30 Oeste 0 -- -- 56
2018-09-05 19:00:00 23.9 15 Oeste 30 Oeste 0 -- -- 51
2018-09-05 18:00:00 24.8 13 Oeste -- -- -- -- -- 52
2018-09-05 17:00:00 24.6 13 Oeste 27 Sudoeste 0 -- -- 53
2018-09-05 16:00:00 24.2 12 Oeste 23 Sudoeste 0 -- -- 59
2018-09-05 15:00:00 24 10 Sudoeste 26 Oeste 0 -- -- 60
2018-09-05 14:00:00 23 13 Oeste 23 Sudoeste 0 -- -- 65
2018-09-05 13:00:00 -- -- -- -- -- -- -- -- --
2018-09-05 12:00:00 23.2 13 Oeste 24 Sudoeste 0 -- -- 60
2018-09-05 11:00:00 21.8 7 Sudoeste 19 Sudoeste 0.1 -- -- 78
2018-09-05 10:00:00 20.6 10 Sudoeste 20 Sudoeste 0 -- -- 87
2018-09-05 09:00:00 20.1 0 Calma -- -- 0 -- -- 89
2018-09-05 08:00:00 19.9 0 Calma 7 Oeste 0 -- -- 88
2018-09-05 07:00:00 19.6 0 Calma 8 Oeste 0 -- -- 87
2018-09-05 06:00:00 19.5 4 Oeste 11 Oeste 0 -- -- 87
2018-09-05 05:00:00 19.3 6 Oeste 11 Oeste 0 -- -- 87
2018-09-05 04:00:00 19.3 7 Oeste 12 Oeste 0 -- -- 87
2018-09-05 03:00:00 19.6 5 Oeste 10 Oeste 0 -- -- 87
2018-09-05 02:00:00 19.8 6 Oeste 13 Sudoeste 0 -- -- 88
2018-09-05 01:00:00 20 8 Sudoeste 15 Sudoeste 0 -- -- 83
2018-09-05 00:00:00 20.1 5 Oeste 13 Sudoeste 0 -- -- 79
2018-09-04 23:00:00 20.4 8 Oeste 16 Sudoeste 0 -- -- 74
2018-09-04 22:00:00 20.6 8 Oeste 22 Oeste 0 -- -- 71
2018-09-04 21:00:00 21.1 11 Oeste 24 Oeste 0 -- -- 70
2018-09-04 20:00:00 22.5 12 Oeste 24 Sudoeste 0 -- -- 59
2018-09-04 19:00:00 24.2 11 Oeste 27 Oeste 0 -- -- 52
2018-09-04 18:00:00 25.1 15 Oeste 28 Oeste 0 -- -- 45
2018-09-04 17:00:00 25.9 14 Oeste 31 Oeste 0 -- -- 44
2018-09-04 16:00:00 25.9 16 Oeste 29 Oeste 0 -- -- 42
2018-09-04 15:00:00 25.4 12 Oeste 28 Sudoeste 0 -- -- 43
2018-09-04 14:00:00 24.4 13 Oeste 27 Sudoeste 0 -- -- 49
2018-09-04 13:00:00 23.1 12 Sudoeste 27 Sudoeste 0 -- -- 54
2018-09-04 12:00:00 22.7 7 Oeste 18 Oeste 0 -- -- 59
2018-09-04 11:00:00 21.8 5 Oeste 13 Oeste 0 -- -- 64
2018-09-04 10:00:00 21 6 Oeste 10 Sudoeste 0 -- -- 69
2018-09-04 09:00:00 20.1 0 Calma -- -- 0 -- -- 68
2018-09-04 08:00:00 19.7 0 Calma 6 Noroeste 0 -- -- 68
2018-09-04 07:00:00 19.4 0 Calma 11 Norte 0 -- -- 70
2018-09-04 06:00:00 19.5 3 Noroeste 12 Oeste 0 -- -- 77
2018-09-04 05:00:00 19.4 5 Oeste 13 Oeste 0 -- -- 78
2018-09-04 04:00:00 20.1 8 Oeste 17 Oeste 0 -- -- 77
2018-09-04 03:00:00 20.3 6 Oeste 11 Sudoeste 0 -- -- 81
2018-09-04 02:00:00 19.9 6 Sudoeste 13 Sudoeste 0 -- -- 83
2018-09-04 01:00:00 19.9 7 Oeste 15 Oeste 0 -- -- 81
2018-09-04 00:00:00 20.4 6 Oeste 13 Oeste 0 -- -- 80
2018-09-03 23:00:00 20.1 5 Oeste 15 Oeste 0 -- -- 80
2018-09-03 22:00:00 20.4 6 Oeste 17 Oeste 0 -- -- 78
2018-09-03 21:00:00 20.9 9 Oeste 23 Oeste 0 -- -- 72
2018-09-03 20:00:00 22.3 11 Oeste 29 Sudoeste 0 -- -- 57
2018-09-03 19:00:00 23.2 14 Oeste 31 Sudoeste 0 -- -- 56
2018-09-03 18:00:00 24.4 16 Oeste 30 Oeste 0 -- -- 46
2018-09-03 17:00:00 24.8 17 Oeste 33 Sudoeste 0 -- -- 51
2018-09-03 16:00:00 24 18 Sudoeste 33 Sudoeste 0 -- -- 53
2018-09-03 15:00:00 24.7 15 Sudoeste 31 Sudoeste 0 -- -- 50
2018-09-03 14:00:00 25.1 14 Sudoeste 31 Sudoeste 0 -- -- 53
2018-09-03 13:00:00 23.5 15 Sudoeste 26 Sudoeste 0 -- -- 61
2018-09-03 12:00:00 23.6 11 Sudoeste 20 Sudoeste 0 -- -- 62
2018-09-03 11:00:00 22.1 10 Oeste 17 Sudoeste 0 -- -- 72
2018-09-03 10:00:00 21.3 0 Calma 9 Noroeste 0 -- -- 89
2018-09-03 09:00:00 20.7 0 Calma 8 Oeste 0 -- -- 91
2018-09-03 08:00:00 20.4 0 Calma -- -- 0 -- -- 94
2018-09-03 07:00:00 20.3 2 Oeste 8 Oeste 0 -- -- 95
2018-09-03 06:00:00 20.2 0 Calma 6 Sudoeste 0 -- -- 95
2018-09-03 05:00:00 20.3 5 Sudoeste 19 Sudoeste 0 -- -- 95
2018-09-03 04:00:00 20.5 6 Sudoeste 11 Sudoeste 0 -- -- 95
2018-09-03 03:00:00 20.5 6 Sudoeste 15 Oeste 0 -- -- 95
2018-09-03 02:00:00 20.3 12 Oeste 26 Sudoeste 0 -- -- 95
2018-09-03 01:00:00 20.6 16 Sudoeste 29 Sudoeste 0.1 -- -- 95
2018-09-03 00:00:00 21.1 18 Sudoeste 28 Sudoeste 0 -- -- 95
2018-09-02 23:00:00 21.3 17 Sur 40 Sur 0 -- -- 95
2018-09-02 22:00:00 23.5 21 Sudeste 42 Sudeste 0 -- -- 77
2018-09-02 21:00:00 23.8 14 Sudeste 25 Sudeste 0 -- -- 72
2018-09-02 20:00:00 26.8 10 Sudeste 25 Este 0 -- -- 54
2018-09-02 19:00:00 28.8 13 Sudeste 26 Sudeste 0 -- -- 46
2018-09-02 18:00:00 31.3 13 Este 33 Este 0 -- -- 38
2018-09-02 17:00:00 31.2 15 Este 36 Este 0 -- -- 40
2018-09-02 16:00:00 31.7 15 Este 39 Este 0 -- -- 40
2018-09-02 15:00:00 32.1 15 Este 39 Nordeste 0 -- -- 40
2018-09-02 14:00:00 29.7 18 Este 42 Este 0 -- -- 48
2018-09-02 13:00:00 30.1 15 Este 37 Este 0 -- -- 49
2018-09-02 12:00:00 28.2 18 Este 39 Este 0 -- -- 56
2018-09-02 11:00:00 26.8 20 Este 44 Este 0 -- -- 63
2018-09-02 10:00:00 24.9 20 Este 44 Este 0 -- -- 74
2018-09-02 09:00:00 23.1 18 Este 38 Este 0 -- -- 85
2018-09-02 08:00:00 22.7 18 Este 42 Este 0 -- -- 85
2018-09-02 07:00:00 22.6 16 Este 42 Este 0 -- -- 87
2018-09-02 06:00:00 22.6 17 Este 35 Este 0 -- -- 87
2018-09-02 05:00:00 23.1 17 Este 40 Este 0 -- -- 79
2018-09-02 04:00:00 23.3 19 Este 40 Este 0 -- -- 76
2018-09-02 03:00:00 23 15 Este 40 Este 0 -- -- 80
2018-09-02 02:00:00 23.3 19 Este 40 Este 0 -- -- 80
2018-09-02 01:00:00 23.3 18 Este 45 Este 0 -- -- 78
2018-09-02 00:00:00 23.5 18 Este 39 Este 0 -- -- 75
2018-09-01 23:00:00 23.6 17 Este 39 Este 0 -- -- 74
2018-09-01 22:00:00 23.8 17 Este 39 Este 0 -- -- 74
2018-09-01 21:00:00 24.3 17 Este 42 Este 0 -- -- 70
2018-09-01 20:00:00 25.5 17 Este 44 Este 0 -- -- 61
2018-09-01 19:00:00 27.2 17 Este 43 Este 0 -- -- 54
2018-09-01 18:00:00 28.4 17 Este 42 Este 0 -- -- 53
2018-09-01 17:00:00 28.8 19 Este 48 Este 0 -- -- 51
2018-09-01 16:00:00 29.2 23 Este 51 Este 0 -- -- 51
2018-09-01 15:00:00 28.9 26 Este 59 Este 0 -- -- 52
2018-09-01 14:00:00 28.5 24 Este 54 Este 0 -- -- 54
2018-09-01 13:00:00 28.1 22 Este 58 Este 0 -- -- 56
2018-09-01 12:00:00 27.6 21 Este 53 Este 0 -- -- 57
2018-09-01 11:00:00 26.5 23 Este 47 Este 0 -- -- 65
2018-09-01 10:00:00 25.1 22 Este 42 Este 0 -- -- 72
2018-09-01 09:00:00 23.5 21 Este 45 Este 0 -- -- 80
2018-09-01 08:00:00 22.9 23 Este 43 Este 0 -- -- 81
2018-09-01 07:00:00 22.7 18 Este 34 Este 0 -- -- 83
2018-09-01 06:00:00 22.4 9 Nordeste 25 Sudeste 0 -- -- 86
2018-09-01 05:00:00 22.4 11 Nordeste 23 Este 0 -- -- 85
2018-09-01 04:00:00 22.5 10 Este 30 Este 0 -- -- 81
2018-09-01 03:00:00 22.8 14 Este 36 Este 0 -- -- 76
2018-09-01 02:00:00 22.8 13 Este 29 Nordeste 0 -- -- 78
2018-09-01 01:00:00 23.1 15 Nordeste 35 Nordeste 0 -- -- 76
2018-09-01 00:00:00 23.5 18 Este 41 Este 0 -- -- 67
2018-08-31 23:00:00 23.8 21 Este 49 Este 0 -- -- 63
2018-08-31 22:00:00 24.1 25 Este 48 Este 0 -- -- 60
2018-08-31 21:00:00 24.6 19 Este 40 Este 0 -- -- 60
2018-08-31 20:00:00 26.1 17 Este 48 Este 0 -- -- 51
2018-08-31 19:00:00 27.3 20 Este 45 Este 0 -- -- 45
2018-08-31 18:00:00 28.4 21 Este 45 Sudeste 0 -- -- 44
2018-08-31 17:00:00 28.7 21 Este 53 Este 0 -- -- 45
2018-08-31 16:00:00 28.6 24 Este 55 Este 0 -- -- 47
2018-08-31 15:00:00 28.5 27 Este 58 Este 0 -- -- 47
2018-08-31 14:00:00 28.8 24 Este 59 Este 0 -- -- 47
2018-08-31 13:00:00 28.5 22 Este 53 Este 0 -- -- 48
2018-08-31 12:00:00 27.6 22 Este 50 Este 0 -- -- 52
2018-08-31 11:00:00 26 21 Este 49 Este 0 -- -- 58
2018-08-31 10:00:00 24.4 18 Este 41 Este 0 -- -- 68
2018-08-31 09:00:00 23 15 Este 41 Este 0 -- -- 76
2018-08-31 08:00:00 22.5 18 Este 42 Este 0 -- -- 76
2018-08-31 07:00:00 22.4 16 Este 42 Este 0 -- -- 76
2018-08-31 06:00:00 22.6 20 Este 46 Este 0 -- -- 75
2018-08-31 05:00:00 22.9 21 Este 48 Este 0 -- -- 74
2018-08-31 04:00:00 22.6 20 Este 39 Este 0 -- -- 77
2018-08-31 03:00:00 22.9 21 Este 41 Este 0 -- -- 80
2018-08-31 02:00:00 23.2 14 Este 34 Sudeste 0 -- -- 78
2018-08-31 01:00:00 23.4 13 Este 30 Este 0 -- -- 74
2018-08-31 00:00:00 23.8 11 Este 27 Este 0 -- -- 71
2018-08-30 23:00:00 24.2 9 Este 26 Este 0 -- -- 66
2018-08-30 22:00:00 24.6 12 Este 26 Este 0 -- -- 60
2018-08-30 21:00:00 25.7 10 Este 30 Este 0 -- -- 52
2018-08-30 20:00:00 27.5 15 Este 36 Este 0 -- -- 41
2018-08-30 19:00:00 28.8 14 Este 28 Este 0 -- -- 39
2018-08-30 18:00:00 29.8 14 Este 37 Este 0 -- -- 37
2018-08-30 17:00:00 30.5 15 Este 37 Este 0 -- -- 36
2018-08-30 16:00:00 30.5 14 Este 31 Nordeste 0 -- -- 34
2018-08-30 15:00:00 30 3 Este 18 Este 0 -- -- 37
2018-08-30 14:00:00 28.8 3 Este 25 Sudeste 0 -- -- 41
2018-08-30 13:00:00 28.6 12 Este 31 Este 0 -- -- 44
2018-08-30 12:00:00 25.8 8 Este 22 Este 0 -- -- 53
2018-08-30 11:00:00 23.2 3 Este 11 Sudeste 0 -- -- 64
2018-08-30 10:00:00 19.9 4 Sudoeste 10 Sudoeste 0 -- -- 88
2018-08-30 09:00:00 18.6 0 Calma 6 Sur 0 -- -- 95
2018-08-30 08:00:00 18 3 Sur 10 Sur 0 -- -- 95
2018-08-30 07:00:00 18.1 3 Sur 9 Sudoeste 0 -- -- 95
2018-08-30 06:00:00 18.3 5 Sur 9 Sur 0 -- -- 95
2018-08-30 05:00:00 18.6 4 Sudoeste 10 Sudoeste 0 -- -- 93
2018-08-30 04:00:00 19.1 5 Sudoeste 10 Sudoeste 0 -- -- 93
2018-08-30 03:00:00 19.3 6 Sudoeste 13 Sudoeste 0 -- -- 93
2018-08-30 02:00:00 19.4 8 Sudoeste 15 Sudoeste 0 -- -- 93
2018-08-30 01:00:00 19.7 8 Oeste 15 Sudoeste 0 -- -- 92
2018-08-30 00:00:00 20 6 Oeste 24 Oeste 0 -- -- 91
2018-08-29 23:00:00 20 16 Oeste 24 Oeste 0 -- -- 91
2018-08-29 22:00:00 20.2 13 Oeste 30 Oeste 0 -- -- 87
2018-08-29 21:00:00 20.9 17 Oeste 29 Oeste 0 -- -- 79
2018-08-29 20:00:00 23 17 Oeste 32 Oeste 0 -- -- 60
2018-08-29 19:00:00 24 18 Oeste 31 Oeste 0 -- -- 52
2018-08-29 18:00:00 25.1 15 Oeste 31 Oeste 0 -- -- 51
2018-08-29 17:00:00 26 13 Oeste 27 Oeste 0 -- -- 48
2018-08-29 16:00:00 25.4 14 Oeste 28 Sudoeste 0 -- -- 55
2018-08-29 15:00:00 24.9 14 Oeste 25 Oeste 0 -- -- 53
2018-08-29 14:00:00 25.7 9 Oeste 20 Oeste 0 -- -- 50
2018-08-29 13:00:00 23.2 10 Sudoeste 21 Sudoeste 0 -- -- 59
2018-08-29 12:00:00 22.7 9 Sudoeste 21 Sudoeste 0 -- -- 60
2018-08-29 11:00:00 21.8 6 Sudoeste 17 Sudoeste 0 -- -- 68
2018-08-29 10:00:00 20.3 2 Sur 14 Sudoeste 0 -- -- 78
2018-08-29 09:00:00 19.4 6 Sudoeste 11 Sudoeste 0 -- -- 88
2018-08-29 08:00:00 19 5 Sudoeste 11 Sudoeste 0 -- -- 94
2018-08-29 07:00:00 18.9 6 Sudoeste 13 Sur 0 -- -- 95
2018-08-29 06:00:00 18.7 8 Sudoeste 12 Sudoeste 0 -- -- 95
2018-08-29 05:00:00 18.9 5 Sudoeste 13 Sudoeste 0 -- -- 95
2018-08-29 04:00:00 18.9 7 Sudoeste 14 Sur 0 -- -- 95
2018-08-29 03:00:00 19.4 8 Sur 17 Sur 0 -- -- 95
2018-08-29 02:00:00 19.1 6 Sudoeste 15 Sudoeste 0 -- -- 95
2018-08-29 01:00:00 19.4 9 Sudoeste 16 Sur 0 -- -- 95
2018-08-29 00:00:00 19.8 5 Sudoeste 12 Sudoeste 0 -- -- 94
2018-08-28 23:00:00 20.2 6 Sudoeste 8 Sudoeste 0 -- -- 91
2018-08-28 22:00:00 21 0 Calma 12 Oeste 0 -- -- 87
2018-08-28 21:00:00 21.4 8 Oeste 24 Oeste 0 -- -- 88
2018-08-28 20:00:00 22 15 Oeste 29 Oeste 0 -- -- 87
2018-08-28 19:00:00 24.5 16 Oeste 32 Oeste 0 -- -- 69
2018-08-28 18:00:00 25.9 18 Oeste 31 Oeste 0 -- -- 61
2018-08-28 17:00:00 27.3 15 Oeste 27 Oeste 0 -- -- 56
2018-08-28 16:00:00 28.1 15 Oeste 26 Oeste 0 -- -- 54
2018-08-28 15:00:00 28.5 12 Oeste 21 Oeste 0 -- -- 52
2018-08-28 14:00:00 27.1 12 Sudoeste 27 Sudoeste 0 -- -- 58
2018-08-28 13:00:00 28.6 10 Oeste 18 Oeste 0 -- -- 53
2018-08-28 12:00:00 27.7 6 Sudoeste 14 Sudoeste 0 -- -- 56
2018-08-28 11:00:00 26.8 5 Sudeste 22 Este 0 -- -- 60
2018-08-28 10:00:00 24.9 8 Este 21 Este 0 -- -- 73
2018-08-28 09:00:00 22.6 7 Este 18 Nordeste 0 -- -- 88
2018-08-28 08:00:00 21.5 6 Nordeste 11 Nordeste 0 -- -- 91
2018-08-28 07:00:00 22 4 Nordeste 11 Este 0 -- -- 90
2018-08-28 06:00:00 21.7 0 Calma 5 Oeste 0 -- -- 94
2018-08-28 05:00:00 21.4 2 Oeste 15 Oeste 0 -- -- 94
2018-08-28 04:00:00 21.5 8 Oeste 15 Oeste 0 -- -- 94
2018-08-28 03:00:00 21.5 5 Este 17 Sudoeste 0 -- -- 94
2018-08-28 02:00:00 21.2 9 Sur 22 Sur 0 -- -- 94
2018-08-28 01:00:00 21.6 14 Sur 30 Sur 0 -- -- 93
2018-08-28 00:00:00 21.7 14 Sur 32 Sur 0 -- -- 93
2018-08-27 23:00:00 23.7 14 Sudeste 36 Sudeste 0 -- -- 80
2018-08-27 22:00:00 25.1 22 Sudeste 48 Sudeste 0 -- -- 64
2018-08-27 21:00:00 24.1 14 Sudeste 31 Este 0 -- -- 74
2018-08-27 20:00:00 25.6 14 Sudeste 29 Sudeste 0 -- -- 59
2018-08-27 19:00:00 29.1 12 Sudeste 38 Este 0 -- -- 43
2018-08-27 18:00:00 28.2 15 Este 37 Este 0 -- -- 43
2018-08-27 17:00:00 28.7 16 Este 45 Este 0 -- -- 46
2018-08-27 16:00:00 29.1 14 Este 41 Este 0 -- -- 41
2018-08-27 15:00:00 30.6 17 Este 48 Este 0 -- -- 41
2018-08-27 14:00:00 28.9 23 Este 62 Este 0 -- -- 49
2018-08-27 13:00:00 26 26 Este 65 Este 0 -- -- 64
2018-08-27 12:00:00 27.5 18 Este 47 Este 0 -- -- 56
2018-08-27 11:00:00 26.7 20 Este 49 Este 0 -- -- 58
2018-08-27 10:00:00 24.6 19 Este 53 Este 0 -- -- 69
2018-08-27 09:00:00 23.4 20 Este 45 Este 0 -- -- 78
2018-08-27 08:00:00 22.9 18 Este 42 Este 0 -- -- 79
2018-08-27 07:00:00 23 18 Este 45 Este 0 -- -- 79
2018-08-27 06:00:00 22.9 21 Este 44 Este 0 -- -- 79
2018-08-27 05:00:00 22.9 17 Este 39 Este 0 -- -- 78
2018-08-27 04:00:00 22.9 15 Este 43 Este 0 -- -- 76
2018-08-27 03:00:00 23.1 17 Este 45 Este 0 -- -- 72
2018-08-27 02:00:00 23.2 18 Este 40 Este 0 -- -- 72
2018-08-27 01:00:00 23.4 17 Este 39 Este 0 -- -- 72
2018-08-27 00:00:00 23.5 16 Este 30 Este 0 -- -- 71
2018-08-26 23:00:00 23.9 13 Este 31 Este 0 -- -- 64
2018-08-26 22:00:00 24.9 13 Este 36 Este 0 -- -- 52
2018-08-26 21:00:00 25.7 14 Este 35 Este 0 -- -- 45
2018-08-26 20:00:00 27.8 15 Este 31 Este 0 -- -- 39
2018-08-26 19:00:00 30 13 Este 39 Este 0 -- -- 32
2018-08-26 18:00:00 31.6 14 Este 37 Este 0 -- -- 27
2018-08-26 17:00:00 32.3 15 Este 34 Este 0 -- -- 23
2018-08-26 16:00:00 32.4 17 Este 36 Este 0 -- -- 22
2018-08-26 15:00:00 32.5 14 Este 35 Este 0 -- -- 21
2018-08-26 14:00:00 33.1 11 Este 28 Este 0 -- -- 25
2018-08-26 13:00:00 31.6 10 Este 28 Este 0 -- -- 30
2018-08-26 12:00:00 29.4 9 Este 18 Sudeste 0 -- -- 38
2018-08-26 11:00:00 25.8 6 Este 12 Este 0 -- -- 54
2018-08-26 10:00:00 20.4 3 Este 8 Este 0 -- -- 95
2018-08-26 09:00:00 19.4 0 Calma 7 Este 0 -- -- 95
2018-08-26 08:00:00 19.2 3 Sur 12 Sur 0 -- -- 95
2018-08-26 07:00:00 19.3 6 Sur 12 Sudeste 0 -- -- 95
2018-08-26 06:00:00 20.2 3 Oeste 9 Sudoeste 0 -- -- 89
2018-08-26 05:00:00 21.5 3 Sudeste 9 Sudeste 0 -- -- 83
2018-08-26 04:00:00 22.5 3 Nordeste 6 Norte 0 -- -- 61
2018-08-26 03:00:00 24.5 4 Noroeste 9 Noroeste 0 -- -- 47
2018-08-26 02:00:00 24.3 5 Oeste 10 Oeste 0 -- -- 54
2018-08-26 01:00:00 24 7 Sudoeste 11 Sudoeste 0 -- -- 60
2018-08-26 00:00:00 24.8 2 Oeste 4 Oeste 0 -- -- 52
2018-08-25 23:00:00 26 2 Oeste 4 Oeste 0 -- -- 44
2018-08-25 22:00:00 26.2 0 Calma 5 Oeste 0 -- -- 45
2018-08-25 21:00:00 25.3 3 Oeste 10 Oeste 0 -- -- 64
2018-08-25 20:00:00 27.2 5 Oeste 19 Oeste 0 -- -- 54
2018-08-25 19:00:00 29.6 14 Oeste 24 Oeste 0 -- -- 45
2018-08-25 18:00:00 29.5 14 Sudoeste 24 Oeste 0 -- -- 45
2018-08-25 17:00:00 29.2 13 Oeste 22 Sudoeste 0 -- -- 47
2018-08-25 16:00:00 28 13 Oeste 23 Sudoeste 0 -- -- 56
2018-08-25 15:00:00 27.4 13 Sudoeste 23 Oeste 0 -- -- 58
2018-08-25 14:00:00 26.4 13 Sudoeste 22 Sudoeste 0 -- -- 60
2018-08-25 13:00:00 25.4 13 Sudoeste 20 Sudoeste 0 -- -- 64
2018-08-25 12:00:00 23.9 11 Sudoeste 18 Sur 0 -- -- 68
2018-08-25 11:00:00 24.5 11 Sudoeste 18 Sudoeste 0 -- -- 63
2018-08-25 10:00:00 25 9 Sudeste 25 Sudeste 0 -- -- 53
2018-08-25 09:00:00 24.9 9 Sur 19 Sudeste 0 -- -- 43
2018-08-25 08:00:00 23.7 9 Sur 15 Sudeste 0 -- -- 47
2018-08-25 07:00:00 24.6 3 Sudeste 6 Sudeste 0 -- -- 44
2018-08-25 06:00:00 25.1 4 Nordeste 6 Nordeste 0 -- -- 45
2018-08-25 05:00:00 24.3 4 Nordeste 7 Nordeste 0 -- -- 48
2018-08-25 04:00:00 25.5 3 Norte 7 Norte 0 -- -- 45
2018-08-25 03:00:00 25.3 2 Sudeste 4 Sudeste 0 -- -- 44
2018-08-25 02:00:00 26.1 0 Calma 7 Sudeste 0 -- -- 42
2018-08-25 01:00:00 26.7 5 Sur 8 Sudoeste 0 -- -- 38
2018-08-25 00:00:00 26.1 4 Sudoeste 8 Sur 0 -- -- 40
2018-08-24 23:00:00 26.9 3 Este 5 Este 0 -- -- 36
2018-08-24 22:00:00 28.9 0 Calma 10 Oeste 0 -- -- 32
2018-08-24 21:00:00 29.7 7 Oeste 17 Oeste 0 -- -- 31
2018-08-24 20:00:00 32.1 9 Oeste 19 Oeste 0 -- -- 29
2018-08-24 19:00:00 31.8 13 Oeste 25 Oeste 0 -- -- 33
2018-08-24 18:00:00 32.2 15 Oeste 28 Oeste 0 -- -- 33
2018-08-24 17:00:00 32.8 13 Oeste 25 Oeste 0 -- -- 33
2018-08-24 16:00:00 31.4 13 Oeste 27 Oeste 0 -- -- 37
2018-08-24 15:00:00 31.6 13 Oeste 23 Oeste 0 -- -- 37
2018-08-24 14:00:00 32.3 9 Oeste 20 Oeste 0 -- -- 37
2018-08-24 13:00:00 32.4 7 Oeste 17 Oeste 0 -- -- 34
2018-08-24 12:00:00 31.2 6 Oeste 10 Oeste 0 -- -- 31
2018-08-24 11:00:00 29 3 Este 6 Este 0 -- -- 32
2018-08-24 10:00:00 27.6 0 Calma 7 Este 0 -- -- 36
2018-08-24 09:00:00 25.2 5 Este 12 Este 0 -- -- 38
2018-08-24 08:00:00 24.6 6 Este 11 Este 0 -- -- 37
2018-08-24 07:00:00 24.3 6 Nordeste 10 Este 0 -- -- 40
2018-08-24 06:00:00 24 5 Este 10 Nordeste 0 -- -- 43
2018-08-24 05:00:00 23 6 Nordeste 12 Nordeste 0 -- -- 49
2018-08-24 04:00:00 23.8 5 Este 9 Norte 0 -- -- 46
2018-08-24 03:00:00 25.3 2 Norte 13 Norte 0 -- -- 38
2018-08-24 02:00:00 25.8 5 Noroeste 11 Norte 0 -- -- 39
2018-08-24 01:00:00 25.5 5 Noroeste 8 Noroeste 0 -- -- 42
2018-08-24 00:00:00 25.7 3 Noroeste 7 Noroeste 0 -- -- 43
2018-08-23 23:00:00 25.8 0 Calma 9 Oeste 0 -- -- 41
2018-08-23 22:00:00 26.6 8 Oeste 18 Oeste 0 -- -- 38
2018-08-23 21:00:00 27.2 10 Oeste 20 Oeste 0 -- -- 39
2018-08-23 20:00:00 29.7 12 Oeste 22 Oeste 0 -- -- 35
2018-08-23 19:00:00 30.1 14 Oeste 24 Oeste 0 -- -- 36
2018-08-23 18:00:00 31.2 14 Oeste 22 Oeste 0 -- -- 33
2018-08-23 17:00:00 32.8 13 Oeste 23 Oeste 0 -- -- 29
2018-08-23 16:00:00 34.8 7 Este 23 Este 0 -- -- 23
2018-08-23 15:00:00 33.8 9 Este 19 Este 0 -- -- 25
2018-08-23 14:00:00 32.5 5 Este 19 Este 0 -- -- 30
2018-08-23 13:00:00 31.5 6 Este 18 Este 0 -- -- 35
2018-08-23 12:00:00 29.7 10 Este 24 Nordeste 0 -- -- 40
2018-08-23 11:00:00 27.4 11 Este 25 Este 0 -- -- 51
2018-08-23 10:00:00 24.8 9 Este 22 Este 0 -- -- 61
2018-08-23 09:00:00 22.2 6 Este 15 Este 0 -- -- 69
2018-08-23 08:00:00 21.4 7 Nordeste 17 Nordeste 0 -- -- 68
2018-08-23 07:00:00 21.9 7 Nordeste 16 Nordeste 0 -- -- 65
2018-08-23 06:00:00 22.6 7 Este 15 Este 0 -- -- 61
2018-08-23 05:00:00 22.4 7 Este 15 Este 0 -- -- 64
2018-08-23 04:00:00 22.5 5 Nordeste 20 Este 0 -- -- 63
2018-08-23 03:00:00 22.7 10 Este 17 Este 0 -- -- 64
2018-08-23 02:00:00 23 7 Este 29 Este 0 -- -- 61
2018-08-23 01:00:00 23.5 14 Este 30 Este 0 -- -- 61
2018-08-23 00:00:00 22.8 9 Este 23 Este 0 -- -- 64